sensor_id;sensor_type;location;lat;lon;timestamp;pressure;altitude;pressure_sealevel;temperature;humidity
57248;BME280;55809;46.618;10.764;2023-04-08T00:00:42;92798.88;;;7.27;51.43
57248;BME280;55809;46.618;10.764;2023-04-08T00:03:11;92802.72;;;7.26;51.39
57248;BME280;55809;46.618;10.764;2023-04-08T00:05:46;92798.50;;;7.25;51.02
57248;BME280;55809;46.618;10.764;2023-04-08T00:08:16;92800.78;;;7.23;50.86
57248;BME280;55809;46.618;10.764;2023-04-08T00:10:46;92797.75;;;7.28;50.96
57248;BME280;55809;46.618;10.764;2023-04-08T00:13:13;92793.16;;;7.32;51.20
57248;BME280;55809;46.618;10.764;2023-04-08T00:15:42;92796.59;;;7.29;50.93
57248;BME280;55809;46.618;10.764;2023-04-08T00:18:09;92800.84;;;7.37;50.55
57248;BME280;55809;46.618;10.764;2023-04-08T00:20:37;92805.81;;;7.42;51.09
57248;BME280;55809;46.618;10.764;2023-04-08T00:23:10;92796.25;;;7.45;52.35
57248;BME280;55809;46.618;10.764;2023-04-08T00:25:39;92799.28;;;7.43;52.91
57248;BME280;55809;46.618;10.764;2023-04-08T00:28:07;92802.78;;;7.47;51.36
57248;BME280;55809;46.618;10.764;2023-04-08T00:30:34;92796.59;;;7.43;50.89
57248;BME280;55809;46.618;10.764;2023-04-08T00:33:02;92796.25;;;7.48;50.58
57248;BME280;55809;46.618;10.764;2023-04-08T00:35:31;92793.97;;;7.54;50.74
57248;BME280;55809;46.618;10.764;2023-04-08T00:37:58;92791.28;;;7.58;50.81
57248;BME280;55809;46.618;10.764;2023-04-08T00:40:28;92793.97;;;7.58;51.41
57248;BME280;55809;46.618;10.764;2023-04-08T00:42:56;92791.28;;;7.65;51.53
57248;BME280;55809;46.618;10.764;2023-04-08T00:45:27;92795.88;;;7.64;52.44
57248;BME280;55809;46.618;10.764;2023-04-08T00:47:55;92795.47;;;7.66;52.72
57248;BME280;55809;46.618;10.764;2023-04-08T00:50:25;92798.19;;;7.66;53.08
57248;BME280;55809;46.618;10.764;2023-04-08T00:52:53;92794.72;;;7.62;53.27
57248;BME280;55809;46.618;10.764;2023-04-08T00:55:23;92797.41;;;7.58;52.44
57248;BME280;55809;46.618;10.764;2023-04-08T00:57:54;92801.25;;;7.61;52.46
57248;BME280;55809;46.618;10.764;2023-04-08T01:00:24;92800.47;;;7.57;52.99
57248;BME280;55809;46.618;10.764;2023-04-08T01:02:57;92801.97;;;7.40;54.33
57248;BME280;55809;46.618;10.764;2023-04-08T01:05:38;92796.97;;;7.24;54.03
57248;BME280;55809;46.618;10.764;2023-04-08T01:08:09;92801.53;;;7.20;53.93
57248;BME280;55809;46.618;10.764;2023-04-08T01:10:38;92793.13;;;7.14;53.21
57248;BME280;55809;46.618;10.764;2023-04-08T01:13:13;92801.94;;;7.25;54.08
57248;BME280;55809;46.618;10.764;2023-04-08T01:15:46;92797.75;;;7.24;55.35
57248;BME280;55809;46.618;10.764;2023-04-08T01:18:19;92800.03;;;7.37;53.80
57248;BME280;55809;46.618;10.764;2023-04-08T01:20:48;92795.06;;;7.35;53.75
57248;BME280;55809;46.618;10.764;2023-04-08T01:23:31;92790.44;;;7.28;53.55
57248;BME280;55809;46.618;10.764;2023-04-08T01:26:04;92789.69;;;7.21;55.77
57248;BME280;55809;46.618;10.764;2023-04-08T01:28:32;92775.09;;;7.15;55.60
57248;BME280;55809;46.618;10.764;2023-04-08T01:31:02;92783.91;;;7.26;55.28
57248;BME280;55809;46.618;10.764;2023-04-08T01:33:31;92781.66;;;7.35;53.56
57248;BME280;55809;46.618;10.764;2023-04-08T01:35:59;92781.63;;;7.28;53.61
57248;BME280;55809;46.618;10.764;2023-04-08T01:38:27;92780.09;;;7.27;53.57
57248;BME280;55809;46.618;10.764;2023-04-08T01:40:58;92781.63;;;7.21;53.11
57248;BME280;55809;46.618;10.764;2023-04-08T01:43:27;92785.06;;;7.21;54.40
57248;BME280;55809;46.618;10.764;2023-04-08T01:45:59;92774.34;;;7.25;53.89
57248;BME280;55809;46.618;10.764;2023-04-08T01:48:29;92775.13;;;7.29;54.94
57248;BME280;55809;46.618;10.764;2023-04-08T01:50:58;92774.34;;;7.21;54.37
57248;BME280;55809;46.618;10.764;2023-04-08T01:53:26;92783.50;;;7.17;54.62
57248;BME280;55809;46.618;10.764;2023-04-08T01:55:59;92783.50;;;7.10;54.63
57248;BME280;55809;46.618;10.764;2023-04-08T01:58:36;92782.75;;;7.13;54.67
57248;BME280;55809;46.618;10.764;2023-04-08T02:01:10;92788.13;;;7.16;57.19
57248;BME280;55809;46.618;10.764;2023-04-08T02:03:40;92784.31;;;7.17;55.41
57248;BME280;55809;46.618;10.764;2023-04-08T02:06:10;92785.84;;;7.18;54.73
57248;BME280;55809;46.618;10.764;2023-04-08T02:08:38;92783.91;;;7.19;53.58
57248;BME280;55809;46.618;10.764;2023-04-08T02:11:05;92780.84;;;7.20;52.99
57248;BME280;55809;46.618;10.764;2023-04-08T02:13:38;92781.63;;;7.21;52.58
57248;BME280;55809;46.618;10.764;2023-04-08T02:16:09;92773.94;;;7.19;52.82
57248;BME280;55809;46.618;10.764;2023-04-08T02:18:44;92777.00;;;7.18;54.93
57248;BME280;55809;46.618;10.764;2023-04-08T02:21:14;92778.94;;;7.21;55.73
57248;BME280;55809;46.618;10.764;2023-04-08T02:23:45;92783.53;;;7.20;55.17
57248;BME280;55809;46.618;10.764;2023-04-08T02:26:17;92773.59;;;7.24;54.28
57248;BME280;55809;46.618;10.764;2023-04-08T02:28:49;92781.22;;;7.22;54.04
57248;BME280;55809;46.618;10.764;2023-04-08T02:31:18;92783.16;;;7.18;55.27
57248;BME280;55809;46.618;10.764;2023-04-08T02:33:48;92783.13;;;7.11;55.30
57248;BME280;55809;46.618;10.764;2023-04-08T02:36:18;92781.19;;;7.01;55.46
57248;BME280;55809;46.618;10.764;2023-04-08T02:38:49;92780.38;;;6.93;56.30
57248;BME280;55809;46.618;10.764;2023-04-08T02:41:20;92779.97;;;6.84;54.63
57248;BME280;55809;46.618;10.764;2023-04-08T02:43:53;92784.13;;;6.71;54.40
57248;BME280;55809;46.618;10.764;2023-04-08T02:46:21;92780.31;;;6.72;54.52
57248;BME280;55809;46.618;10.764;2023-04-08T02:48:48;92770.34;;;6.65;55.28
57248;BME280;55809;46.618;10.764;2023-04-08T02:51:18;92778.44;;;6.83;54.26
57248;BME280;55809;46.618;10.764;2023-04-08T02:53:48;92779.63;;;6.96;52.90
57248;BME280;55809;46.618;10.764;2023-04-08T02:56:25;92766.97;;;6.93;52.81
57248;BME280;55809;46.618;10.764;2023-04-08T02:59:07;92782.69;;;6.91;52.78
57248;BME280;55809;46.618;10.764;2023-04-08T03:01:42;92755.00;;;6.62;53.57
57248;BME280;55809;46.618;10.764;2023-04-08T03:04:11;92780.31;;;6.72;53.43
57248;BME280;55809;46.618;10.764;2023-04-08T03:06:46;92776.81;;;6.61;53.28
57248;BME280;55809;46.618;10.764;2023-04-08T03:09:13;92780.69;;;6.70;53.40
57248;BME280;55809;46.618;10.764;2023-04-08T03:11:41;92783.00;;;6.68;53.48
57248;BME280;55809;46.618;10.764;2023-04-08T03:14:13;92777.56;;;6.57;53.02
57248;BME280;55809;46.618;10.764;2023-04-08T03:16:41;92779.88;;;6.55;52.61
57248;BME280;55809;46.618;10.764;2023-04-08T03:19:09;92777.97;;;6.63;52.64
57248;BME280;55809;46.618;10.764;2023-04-08T03:21:39;92773.81;;;6.73;52.73
57248;BME280;55809;46.618;10.764;2023-04-08T03:24:06;92778.78;;;6.74;53.69
57248;BME280;55809;46.618;10.764;2023-04-08T03:26:35;92776.09;;;6.74;53.53
57248;BME280;55809;46.618;10.764;2023-04-08T03:29:03;92774.97;;;6.75;54.02
57248;BME280;55809;46.618;10.764;2023-04-08T03:31:36;92768.44;;;6.69;54.19
57248;BME280;55809;46.618;10.764;2023-04-08T03:34:03;92776.88;;;6.71;54.32
57248;BME280;55809;46.618;10.764;2023-04-08T03:36:34;92751.50;;;6.54;54.43
57248;BME280;55809;46.618;10.764;2023-04-08T03:39:02;92770.34;;;6.69;54.19
57248;BME280;55809;46.618;10.764;2023-04-08T03:41:40;92769.94;;;6.70;54.36
57248;BME280;55809;46.618;10.764;2023-04-08T03:44:10;92771.13;;;6.73;54.53
57248;BME280;55809;46.618;10.764;2023-04-08T03:46:47;92769.59;;;6.72;55.03
57248;BME280;55809;46.618;10.764;2023-04-08T03:49:21;92771.84;;;6.63;54.70
57248;BME280;55809;46.618;10.764;2023-04-08T03:51:54;92769.13;;;6.55;55.96
57248;BME280;55809;46.618;10.764;2023-04-08T03:54:26;92770.66;;;6.53;56.52
57248;BME280;55809;46.618;10.764;2023-04-08T03:56:55;92771.38;;;6.43;56.16
57248;BME280;55809;46.618;10.764;2023-04-08T03:59:25;92769.03;;;6.38;56.18
57248;BME280;55809;46.618;10.764;2023-04-08T04:02:07;92779.75;;;6.38;56.74
57248;BME280;55809;46.618;10.764;2023-04-08T04:04:38;92770.59;;;6.35;56.41
57248;BME280;55809;46.618;10.764;2023-04-08T04:07:05;92772.84;;;6.29;57.02
57248;BME280;55809;46.618;10.764;2023-04-08T04:09:38;92766.56;;;6.07;57.43
57248;BME280;55809;46.618;10.764;2023-04-08T04:12:05;92773.81;;;6.00;58.01
57248;BME280;55809;46.618;10.764;2023-04-08T04:14:34;92772.63;;;5.97;58.02
57248;BME280;55809;46.618;10.764;2023-04-08T04:17:15;92774.16;;;5.95;58.26
57248;BME280;55809;46.618;10.764;2023-04-08T04:19:48;92768.03;;;5.98;57.80
57248;BME280;55809;46.618;10.764;2023-04-08T04:22:18;92762.34;;;6.03;57.79
57248;BME280;55809;46.618;10.764;2023-04-08T04:24:47;92765.03;;;6.06;57.58
57248;BME280;55809;46.618;10.764;2023-04-08T04:27:15;92765.84;;;6.10;57.31
57248;BME280;55809;46.618;10.764;2023-04-08T04:29:44;92766.59;;;6.11;56.73
57248;BME280;55809;46.618;10.764;2023-04-08T04:32:18;92772.34;;;6.09;57.12
57248;BME280;55809;46.618;10.764;2023-04-08T04:34:46;92774.22;;;6.05;56.98
57248;BME280;55809;46.618;10.764;2023-04-08T04:37:17;92761.84;;;5.90;57.24
57248;BME280;55809;46.618;10.764;2023-04-08T04:39:45;92782.50;;;5.86;57.72
57248;BME280;55809;46.618;10.764;2023-04-08T04:42:16;92786.34;;;5.44;58.79
57248;BME280;55809;46.618;10.764;2023-04-08T04:44:44;92791.19;;;5.31;59.26
57248;BME280;55809;46.618;10.764;2023-04-08T04:47:15;92792.84;;;5.43;59.16
57248;BME280;55809;46.618;10.764;2023-04-08T04:49:46;92785.25;;;5.52;58.78
57248;BME280;55809;46.618;10.764;2023-04-08T04:52:13;92791.13;;;5.69;57.85
57248;BME280;55809;46.618;10.764;2023-04-08T04:54:43;92793.81;;;5.69;58.16
57248;BME280;55809;46.618;10.764;2023-04-08T04:57:11;92794.22;;;5.71;57.71
57248;BME280;55809;46.618;10.764;2023-04-08T04:59:39;92795.41;;;5.73;57.91
57248;BME280;55809;46.618;10.764;2023-04-08T05:02:08;92801.91;;;5.76;58.33
57248;BME280;55809;46.618;10.764;2023-04-08T05:04:37;92805.34;;;5.73;57.59
57248;BME280;55809;46.618;10.764;2023-04-08T05:07:06;92803.03;;;5.75;57.61
57248;BME280;55809;46.618;10.764;2023-04-08T05:09:34;92803.50;;;5.84;56.94
57248;BME280;55809;46.618;10.764;2023-04-08T05:12:02;92808.47;;;5.85;57.94
57248;BME280;55809;46.618;10.764;2023-04-08T05:14:31;92801.16;;;6.27;56.88
57248;BME280;55809;46.618;10.764;2023-04-08T05:16:59;92803.41;;;6.21;56.71
57248;BME280;55809;46.618;10.764;2023-04-08T05:19:26;92811.78;;;6.13;56.76
57248;BME280;55809;46.618;10.764;2023-04-08T05:22:07;92800.47;;;7.57;52.61
57248;BME280;55809;46.618;10.764;2023-04-08T05:24:35;92777.81;;;8.22;51.18
57248;BME280;55809;46.618;10.764;2023-04-08T05:27:05;92802.34;;;8.63;50.37
57248;BME280;55809;46.618;10.764;2023-04-08T05:29:33;92798.50;;;8.64;51.70
57248;BME280;55809;46.618;10.764;2023-04-08T05:32:02;92801.59;;;8.59;49.94
57248;BME280;55809;46.618;10.764;2023-04-08T05:37:01;92793.06;;;8.75;49.26
57248;BME280;55809;46.618;10.764;2023-04-08T05:39:35;92808.38;;;9.00;48.52
57248;BME280;55809;46.618;10.764;2023-04-08T05:42:04;92802.19;;;9.06;48.33
57248;BME280;55809;46.618;10.764;2023-04-08T05:44:32;92808.28;;;9.21;47.37
57248;BME280;55809;46.618;10.764;2023-04-08T05:47:00;92814.31;;;9.47;47.06
57248;BME280;55809;46.618;10.764;2023-04-08T05:49:28;92797.56;;;9.10;48.64
57248;BME280;55809;46.618;10.764;2023-04-08T05:51:56;92800.66;;;9.09;48.54
57248;BME280;55809;46.618;10.764;2023-04-08T05:54:28;92797.50;;;9.21;47.33
57248;BME280;55809;46.618;10.764;2023-04-08T05:56:57;92805.81;;;9.52;47.57
57248;BME280;55809;46.618;10.764;2023-04-08T05:59:24;92803.97;;;9.97;46.37
57248;BME280;55809;46.618;10.764;2023-04-08T06:01:53;92811.25;;;10.49;44.71
57248;BME280;55809;46.618;10.764;2023-04-08T06:04:22;92804.75;;;10.80;44.32
57248;BME280;55809;46.618;10.764;2023-04-08T06:06:50;92803.31;;;11.07;44.00
57248;BME280;55809;46.618;10.764;2023-04-08T06:09:18;92783.84;;;11.22;42.97
57248;BME280;55809;46.618;10.764;2023-04-08T06:11:48;92796.47;;;11.60;42.01
57248;BME280;55809;46.618;10.764;2023-04-08T06:14:17;92798.09;;;11.81;41.00
57248;BME280;55809;46.618;10.764;2023-04-08T06:16:46;92797.91;;;11.95;40.41
57248;BME280;55809;46.618;10.764;2023-04-08T06:19:14;92793.41;;;12.12;39.83
57248;BME280;55809;46.618;10.764;2023-04-08T06:21:42;92785.22;;;12.39;39.86
57248;BME280;55809;46.618;10.764;2023-04-08T06:24:13;92760.91;;;12.35;38.93
57248;BME280;55809;46.618;10.764;2023-04-08T06:26:44;92787.59;;;12.80;38.56
57248;BME280;55809;46.618;10.764;2023-04-08T06:29:20;92778.13;;;13.08;38.10
57248;BME280;55809;46.618;10.764;2023-04-08T06:31:48;92784.00;;;13.27;37.03
57248;BME280;55809;46.618;10.764;2023-04-08T06:34:17;92782.69;;;13.51;37.53
57248;BME280;55809;46.618;10.764;2023-04-08T06:36:45;92779.19;;;13.71;37.17
57248;BME280;55809;46.618;10.764;2023-04-08T06:39:27;92773.28;;;13.92;36.33
57248;BME280;55809;46.618;10.764;2023-04-08T06:41:55;92770.06;;;13.97;36.48
57248;BME280;55809;46.618;10.764;2023-04-08T06:44:26;92767.09;;;14.08;37.21
57248;BME280;55809;46.618;10.764;2023-04-08T06:46:55;92764.31;;;14.12;36.79
57248;BME280;55809;46.618;10.764;2023-04-08T06:49:22;92766.41;;;14.20;36.53
57248;BME280;55809;46.618;10.764;2023-04-08T06:51:52;92764.34;;;14.41;36.32
57248;BME280;55809;46.618;10.764;2023-04-08T06:54:20;92759.47;;;14.52;34.92
57248;BME280;55809;46.618;10.764;2023-04-08T06:56:47;92758.41;;;14.62;35.92
57248;BME280;55809;46.618;10.764;2023-04-08T06:59:15;92743.88;;;14.69;35.43
57248;BME280;55809;46.618;10.764;2023-04-08T07:01:48;92767.13;;;14.70;35.80
57248;BME280;55809;46.618;10.764;2023-04-08T07:04:19;92756.75;;;14.81;35.45
57248;BME280;55809;46.618;10.764;2023-04-08T07:06:47;92758.53;;;14.88;35.71
57248;BME280;55809;46.618;10.764;2023-04-08T07:09:15;92758.16;;;15.15;35.47
57248;BME280;55809;46.618;10.764;2023-04-08T07:11:41;92752.13;;;14.94;35.35
57248;BME280;55809;46.618;10.764;2023-04-08T07:14:08;92749.25;;;14.40;35.91
57248;BME280;55809;46.618;10.764;2023-04-08T07:16:35;92749.25;;;14.40;36.52
57248;BME280;55809;46.618;10.764;2023-04-08T07:19:04;92750.94;;;14.66;36.34
57248;BME280;55809;46.618;10.764;2023-04-08T07:21:31;92750.53;;;15.10;35.61
57248;BME280;55809;46.618;10.764;2023-04-08T07:23:57;92735.66;;;15.14;32.59
57248;BME280;55809;46.618;10.764;2023-04-08T07:26:25;92737.78;;;15.61;31.77
57248;BME280;55809;46.618;10.764;2023-04-08T07:28:52;92726.03;;;15.52;30.93
57248;BME280;55809;46.618;10.764;2023-04-08T07:31:19;92713.41;;;15.58;31.10
57248;BME280;55809;46.618;10.764;2023-04-08T07:33:46;92723.34;;;15.77;30.73
57248;BME280;55809;46.618;10.764;2023-04-08T07:36:15;92716.91;;;16.09;31.90
57248;BME280;55809;46.618;10.764;2023-04-08T07:38:42;92713.69;;;16.24;30.73
57248;BME280;55809;46.618;10.764;2023-04-08T07:41:09;92717.88;;;16.03;31.36
57248;BME280;55809;46.618;10.764;2023-04-08T07:43:36;92714.53;;;16.33;30.47
57248;BME280;55809;46.618;10.764;2023-04-08T07:46:03;92707.44;;;16.49;29.69
57248;BME280;55809;46.618;10.764;2023-04-08T07:48:31;92713.09;;;16.07;29.34
57248;BME280;55809;46.618;10.764;2023-04-08T07:51:02;92716.44;;;16.11;29.51
57248;BME280;55809;46.618;10.764;2023-04-08T07:53:31;92719.94;;;16.11;29.66
57248;BME280;55809;46.618;10.764;2023-04-08T07:55:59;92714.69;;;16.17;29.27
57248;BME280;55809;46.618;10.764;2023-04-08T07:58:28;92715.41;;;16.78;29.30
57248;BME280;55809;46.618;10.764;2023-04-08T08:00:56;92706.47;;;16.99;29.68
57248;BME280;55809;46.618;10.764;2023-04-08T08:03:23;92706.53;;;16.86;29.08
57248;BME280;55809;46.618;10.764;2023-04-08T08:05:50;92707.03;;;17.16;28.82
57248;BME280;55809;46.618;10.764;2023-04-08T08:08:17;92701.78;;;17.00;28.74
57248;BME280;55809;46.618;10.764;2023-04-08T08:10:45;92707.44;;;17.05;28.61
57248;BME280;55809;46.618;10.764;2023-04-08T08:13:12;92696.00;;;16.98;28.04
57248;BME280;55809;46.618;10.764;2023-04-08T08:15:41;92700.81;;;17.16;28.24
57248;BME280;55809;46.618;10.764;2023-04-08T08:18:08;92705.78;;;17.39;28.60
57248;BME280;55809;46.618;10.764;2023-04-08T08:20:35;92706.84;;;17.10;28.53
57248;BME280;55809;46.618;10.764;2023-04-08T08:23:01;92705.78;;;16.86;27.95
57248;BME280;55809;46.618;10.764;2023-04-08T08:25:28;92697.13;;;16.65;28.38
57248;BME280;55809;46.618;10.764;2023-04-08T08:27:57;92698.81;;;16.50;28.44
57248;BME280;55809;46.618;10.764;2023-04-08T08:30:24;92702.88;;;16.46;29.44
57248;BME280;55809;46.618;10.764;2023-04-08T08:32:51;92714.16;;;16.57;29.38
57248;BME280;55809;46.618;10.764;2023-04-08T08:35:18;92704.38;;;16.47;28.09
57248;BME280;55809;46.618;10.764;2023-04-08T08:37:45;92718.38;;;16.58;29.57
57248;BME280;55809;46.618;10.764;2023-04-08T08:40:13;92678.34;;;16.46;28.78
57248;BME280;55809;46.618;10.764;2023-04-08T08:42:39;92714.31;;;16.40;27.87
57248;BME280;55809;46.618;10.764;2023-04-08T08:45:09;92708.75;;;16.44;28.27
57248;BME280;55809;46.618;10.764;2023-04-08T08:47:36;92710.56;;;16.47;28.69
57248;BME280;55809;46.618;10.764;2023-04-08T08:50:04;92654.16;;;16.13;27.90
57248;BME280;55809;46.618;10.764;2023-04-08T08:52:31;92704.03;;;16.45;28.26
57248;BME280;55809;46.618;10.764;2023-04-08T08:54:58;92702.78;;;16.36;27.26
57248;BME280;55809;46.618;10.764;2023-04-08T08:57:25;92710.09;;;16.61;27.82
57248;BME280;55809;46.618;10.764;2023-04-08T08:59:53;92709.50;;;16.45;28.28
57248;BME280;55809;46.618;10.764;2023-04-08T09:02:25;92710.16;;;16.71;27.08
57248;BME280;55809;46.618;10.764;2023-04-08T09:04:57;92705.81;;;17.17;27.66
57248;BME280;55809;46.618;10.764;2023-04-08T09:07:25;92697.34;;;17.15;26.56
57248;BME280;55809;46.618;10.764;2023-04-08T09:09:53;92703.34;;;17.32;26.34
57248;BME280;55809;46.618;10.764;2023-04-08T09:12:20;92706.94;;;17.51;26.66
57248;BME280;55809;46.618;10.764;2023-04-08T09:14:47;92705.13;;;17.88;27.20
57248;BME280;55809;46.618;10.764;2023-04-08T09:17:14;92687.50;;;17.80;25.75
57248;BME280;55809;46.618;10.764;2023-04-08T09:20:07;92712.28;;;17.64;26.81
57248;BME280;55809;46.618;10.764;2023-04-08T09:22:56;92703.13;;;17.79;26.13
57248;BME280;55809;46.618;10.764;2023-04-08T09:25:24;92707.91;;;17.13;26.98
57248;BME280;55809;46.618;10.764;2023-04-08T09:27:51;92692.50;;;16.97;26.47
57248;BME280;55809;46.618;10.764;2023-04-08T09:30:20;92705.28;;;16.65;26.38
57248;BME280;55809;46.618;10.764;2023-04-08T09:32:48;92702.47;;;16.22;27.31
57248;BME280;55809;46.618;10.764;2023-04-08T09:35:22;92682.97;;;16.23;28.91
57248;BME280;55809;46.618;10.764;2023-04-08T09:37:51;92708.88;;;16.97;27.47
57248;BME280;55809;46.618;10.764;2023-04-08T09:40:18;92698.59;;;16.79;26.47
57248;BME280;55809;46.618;10.764;2023-04-08T09:42:46;92703.53;;;16.72;27.03
57248;BME280;55809;46.618;10.764;2023-04-08T09:45:16;92708.69;;;16.22;27.22
57248;BME280;55809;46.618;10.764;2023-04-08T09:47:55;92708.59;;;16.13;27.39
57248;BME280;55809;46.618;10.764;2023-04-08T09:50:26;92712.66;;;15.95;27.58
57248;BME280;55809;46.618;10.764;2023-04-08T09:53:01;92711.44;;;15.58;28.34
57248;BME280;55809;46.618;10.764;2023-04-08T09:55:35;92711.47;;;14.91;28.24
57248;BME280;55809;46.618;10.764;2023-04-08T09:58:07;92708.94;;;14.84;29.76
57248;BME280;55809;46.618;10.764;2023-04-08T10:00:39;92711.28;;;14.69;29.31
57248;BME280;55809;46.618;10.764;2023-04-08T10:03:15;92709.66;;;14.71;30.23
57248;BME280;55809;46.618;10.764;2023-04-08T10:05:49;92710.03;;;14.41;29.68
57248;BME280;55809;46.618;10.764;2023-04-08T10:08:19;92605.25;;;13.69;30.11
57248;BME280;55809;46.618;10.764;2023-04-08T10:10:46;92714.47;;;14.51;31.02
57248;BME280;55809;46.618;10.764;2023-04-08T10:13:18;92713.94;;;14.56;29.74
57248;BME280;55809;46.618;10.764;2023-04-08T10:15:48;92710.56;;;14.52;29.07
57248;BME280;55809;46.618;10.764;2023-04-08T10:18:31;92715.84;;;14.26;29.79
57248;BME280;55809;46.618;10.764;2023-04-08T10:21:35;92714.94;;;14.17;29.77
57248;BME280;55809;46.618;10.764;2023-04-08T10:24:32;92718.56;;;14.26;30.55
57248;BME280;55809;46.618;10.764;2023-04-08T10:27:37;92703.19;;;14.52;29.94
57248;BME280;55809;46.618;10.764;2023-04-08T10:30:38;92716.16;;;14.45;30.50
57248;BME280;55809;46.618;10.764;2023-04-08T10:33:11;92706.91;;;14.59;30.92
57248;BME280;55809;46.618;10.764;2023-04-08T10:35:41;92705.69;;;14.89;29.66
57248;BME280;55809;46.618;10.764;2023-04-08T10:38:25;92698.25;;;14.76;28.73
57248;BME280;55809;46.618;10.764;2023-04-08T10:40:53;92699.41;;;14.92;29.59
57248;BME280;55809;46.618;10.764;2023-04-08T10:43:22;92694.75;;;15.05;29.33
57248;BME280;55809;46.618;10.764;2023-04-08T10:45:52;92650.53;;;14.63;29.17
57248;BME280;55809;46.618;10.764;2023-04-08T10:48:22;92692.50;;;14.74;29.50
57248;BME280;55809;46.618;10.764;2023-04-08T10:50:54;92649.13;;;14.42;29.11
57248;BME280;55809;46.618;10.764;2023-04-08T10:53:29;92655.88;;;14.50;28.78
57248;BME280;55809;46.618;10.764;2023-04-08T10:56:06;92689.50;;;14.56;28.65
57248;BME280;55809;46.618;10.764;2023-04-08T10:58:35;92605.06;;;13.92;28.24
57248;BME280;55809;46.618;10.764;2023-04-08T11:01:05;92695.81;;;14.37;28.00
57248;BME280;55809;46.618;10.764;2023-04-08T11:03:34;92625.31;;;13.88;27.99
57248;BME280;55809;46.618;10.764;2023-04-08T11:06:02;92688.59;;;14.30;28.19
57248;BME280;55809;46.618;10.764;2023-04-08T11:08:37;92668.72;;;14.04;28.77
57248;BME280;55809;46.618;10.764;2023-04-08T11:11:06;92673.56;;;13.80;29.10
57248;BME280;55809;46.618;10.764;2023-04-08T11:13:38;92670.78;;;13.83;28.79
57248;BME280;55809;46.618;10.764;2023-04-08T11:16:09;92588.09;;;13.26;29.13
57248;BME280;55809;46.618;10.764;2023-04-08T11:18:41;92666.03;;;13.71;29.20
57248;BME280;55809;46.618;10.764;2023-04-08T11:21:11;92600.69;;;13.17;28.34
57248;BME280;55809;46.618;10.764;2023-04-08T11:23:41;92623.91;;;13.34;28.42
57248;BME280;55809;46.618;10.764;2023-04-08T11:26:11;92708.25;;;13.89;28.58
57248;BME280;55809;46.618;10.764;2023-04-08T11:28:42;92584.91;;;12.95;28.09
57248;BME280;55809;46.618;10.764;2023-04-08T11:31:11;92609.25;;;13.31;28.38
57248;BME280;55809;46.618;10.764;2023-04-08T11:33:47;92654.59;;;13.64;28.25
57248;BME280;55809;46.618;10.764;2023-04-08T11:36:16;92658.06;;;13.64;28.10
57248;BME280;55809;46.618;10.764;2023-04-08T11:38:54;92644.69;;;13.57;28.67
57248;BME280;55809;46.618;10.764;2023-04-08T11:41:22;92586.03;;;13.14;28.45
57248;BME280;55809;46.618;10.764;2023-04-08T11:43:55;92676.03;;;13.74;28.04
57248;BME280;55809;46.618;10.764;2023-04-08T11:46:23;92580.94;;;13.00;27.87
57248;BME280;55809;46.618;10.764;2023-04-08T11:48:58;92682.66;;;13.57;28.51
57248;BME280;55809;46.618;10.764;2023-04-08T11:51:27;92647.63;;;13.30;28.89
57248;BME280;55809;46.618;10.764;2023-04-08T11:56:59;92598.00;;;12.80;29.20
57248;BME280;55809;46.618;10.764;2023-04-08T11:59:29;92672.97;;;13.40;29.04
57248;BME280;55809;46.618;10.764;2023-04-08T12:01:59;92618.06;;;12.99;29.99
57248;BME280;55809;46.618;10.764;2023-04-08T12:04:29;92676.34;;;13.27;29.91
57248;BME280;55809;46.618;10.764;2023-04-08T12:06:57;92610.63;;;12.87;30.07
57248;BME280;55809;46.618;10.764;2023-04-08T12:09:25;92644.16;;;13.09;29.86
57248;BME280;55809;46.618;10.764;2023-04-08T12:11:52;92601.44;;;12.64;29.63
57248;BME280;55809;46.618;10.764;2023-04-08T12:14:25;92650.59;;;12.99;30.36
57248;BME280;55809;46.618;10.764;2023-04-08T12:16:52;92682.66;;;13.21;30.15
57248;BME280;55809;46.618;10.764;2023-04-08T12:19:21;92677.59;;;13.23;30.24
57248;BME280;55809;46.618;10.764;2023-04-08T12:21:49;92629.91;;;12.89;31.09
57248;BME280;55809;46.618;10.764;2023-04-08T12:24:16;92672.47;;;13.08;30.09
57248;BME280;55809;46.618;10.764;2023-04-08T12:26:43;92677.47;;;13.10;30.37
57248;BME280;55809;46.618;10.764;2023-04-08T12:29:15;92644.81;;;12.81;29.84
57248;BME280;55809;46.618;10.764;2023-04-08T12:31:44;92671.03;;;13.04;30.04
57248;BME280;55809;46.618;10.764;2023-04-08T12:34:12;92683.44;;;13.01;31.47
57248;BME280;55809;46.618;10.764;2023-04-08T12:36:39;92681.59;;;12.98;30.68
57248;BME280;55809;46.618;10.764;2023-04-08T12:39:09;92625.44;;;12.62;31.27
57248;BME280;55809;46.618;10.764;2023-04-08T12:41:36;92640.69;;;12.73;30.90
57248;BME280;55809;46.618;10.764;2023-04-08T12:44:04;92678.13;;;12.98;31.07
57248;BME280;55809;46.618;10.764;2023-04-08T12:46:33;92682.41;;;12.95;31.15
57248;BME280;55809;46.618;10.764;2023-04-08T12:49:03;92682.41;;;12.95;30.98
57248;BME280;55809;46.618;10.764;2023-04-08T12:51:31;92681.50;;;13.02;30.94
57248;BME280;55809;46.618;10.764;2023-04-08T12:54:00;92671.09;;;13.00;31.64
57248;BME280;55809;46.618;10.764;2023-04-08T12:56:28;92677.41;;;13.13;31.95
57248;BME280;55809;46.618;10.764;2023-04-08T12:59:09;92656.78;;;13.00;31.42
57248;BME280;55809;46.618;10.764;2023-04-08T13:01:39;92681.81;;;13.24;32.59
57248;BME280;55809;46.618;10.764;2023-04-08T13:04:09;92676.34;;;13.27;31.90
57248;BME280;55809;46.618;10.764;2023-04-08T13:06:39;92685.31;;;13.24;31.48
57248;BME280;55809;46.618;10.764;2023-04-08T13:09:06;92644.22;;;12.89;32.28
57248;BME280;55809;46.618;10.764;2023-04-08T13:11:37;92660.59;;;13.02;32.30
57248;BME280;55809;46.618;10.764;2023-04-08T13:14:06;92674.34;;;13.11;32.17
57248;BME280;55809;46.618;10.764;2023-04-08T13:16:36;92677.03;;;13.11;32.61